Time;durP1;ratioP1;P1;durP2;ratioP2;P2;SDS_P1;SDS_P2;PMS_P1;PMS_P2;Temp;Humidity;BMP_temperature;BMP_pressure;BME280_temperature;BME280_humidity;BME280_pressure;Samples;Min_cycle;Max_cycle;Signal;HPM_P1;HPM_P2
2023/12/06 00:01:12;;;;;;;1.95;0.25;;;20.20;45.50;21.00;101309.00;;;;4999013;28;20064;-47
2023/12/06 00:03:38;;;;;;;1.55;0.20;;;20.20;45.50;21.00;101314.00;;;;4997692;28;20037;-50
2023/12/06 00:06:04;;;;;;;0.45;0.10;;;20.20;45.50;21.00;101313.00;;;;5015495;28;20092;-49
2023/12/06 00:08:30;;;;;;;1.85;0.20;;;20.20;45.60;21.00;101320.00;;;;5014598;28;20554;-48
2023/12/06 00:10:57;;;;;;;5.18;0.20;;;20.20;45.60;21.00;101318.00;;;;5014877;28;20056;-46
2023/12/06 00:13:23;;;;;;;0.32;0.10;;;20.20;45.70;21.00;101320.00;;;;5013627;28;20124;-52
2023/12/06 00:15:49;;;;;;;2.33;0.10;;;20.20;45.70;21.00;101319.00;;;;5015022;28;20412;-49
2023/12/06 00:18:15;;;;;;;0.30;0.13;;;20.20;45.70;21.00;101325.00;;;;5013569;28;20037;-49
2023/12/06 00:20:41;;;;;;;1.55;0.10;;;20.20;45.80;21.00;101319.00;;;;5013793;28;20037;-50
2023/12/06 00:23:08;;;;;;;6.70;0.20;;;20.20;45.90;21.00;101324.00;;;;5015522;28;20386;-46
2023/12/06 00:25:34;;;;;;;0.30;0.13;;;20.20;46.00;20.90;101327.00;;;;4997828;28;20048;-49
2023/12/06 00:28:01;;;;;;;2.85;0.20;;;20.10;45.90;21.00;101326.00;;;;5005860;28;20114;-48
2023/12/06 00:30:27;;;;;;;0.75;0.75;;;20.10;46.00;20.90;101331.00;;;;5015848;28;20041;-51
2023/12/06 00:32:53;;;;;;;1.80;0.20;;;20.10;46.00;20.90;101332.00;;;;5015028;28;20029;-49
2023/12/06 00:35:19;;;;;;;0.57;0.10;;;20.10;46.10;20.90;101328.00;;;;5014303;28;20790;-51
2023/12/06 00:37:45;;;;;;;0.28;0.28;;;20.10;46.10;20.90;101326.00;;;;5014326;28;20495;-50
2023/12/06 00:40:12;;;;;;;1.25;0.30;;;20.10;46.10;20.90;101330.00;;;;5016031;28;20049;-46
2023/12/06 00:42:37;;;;;;;0.10;0.10;;;20.10;46.10;20.90;101333.00;;;;5013858;28;20501;-48
2023/12/06 00:45:04;;;;;;;0.10;0.10;;;20.10;46.10;20.90;101334.00;;;;5014143;28;20077;-48
2023/12/06 00:47:30;;;;;;;2.53;0.47;;;20.10;46.30;20.90;101337.00;;;;5014824;28;20037;-48
2023/12/06 00:49:56;;;;;;;0.63;0.10;;;20.10;46.30;20.90;101344.00;;;;5015606;28;20119;-52
2023/12/06 00:52:22;;;;;;;2.40;0.20;;;20.10;46.40;20.90;101341.00;;;;4989089;28;20462;-69
2023/12/06 00:54:49;;;;;;;0.20;0.10;;;20.10;46.40;20.90;101339.00;;;;5013710;28;20060;-68
2023/12/06 00:57:15;;;;;;;0.20;0.10;;;20.10;46.40;20.90;101346.00;;;;5013311;28;20126;-68
2023/12/06 00:59:41;;;;;;;1.42;0.10;;;20.10;46.40;20.90;101342.00;;;;5015115;28;20052;-68
2023/12/06 01:02:07;;;;;;;0.63;0.20;;;20.10;46.40;20.90;101343.00;;;;5014761;28;20045;-68
2023/12/06 01:04:37;;;;;;;0.85;0.10;;;20.10;46.50;20.90;101348.00;;;;5014489;28;20049;-68
2023/12/06 01:07:04;;;;;;;0.38;0.10;;;20.10;46.50;20.90;101347.00;;;;5017131;28;20626;-68
2023/12/06 01:09:30;;;;;;;0.20;0.10;;;20.10;46.40;20.90;101352.00;;;;5015267;28;20048;-68
2023/12/06 01:11:57;;;;;;;0.55;0.10;;;20.10;46.30;20.90;101350.00;;;;5015712;28;22184;-68
2023/12/06 01:14:22;;;;;;;1.10;0.80;;;20.10;46.30;20.90;101355.00;;;;5013059;28;20061;-48
2023/12/06 01:16:48;;;;;;;0.13;0.13;;;20.10;46.30;20.90;101355.00;;;;5012069;28;20046;-52
2023/12/06 01:19:16;;;;;;;0.57;0.10;;;20.10;46.20;20.90;101362.00;;;;5014124;28;20041;-51
2023/12/06 01:21:43;;;;;;;1.67;0.10;;;20.10;46.20;20.90;101360.00;;;;5015163;28;20034;-50
2023/12/06 01:24:09;;;;;;;0.95;0.30;;;20.10;46.20;20.90;101358.00;;;;5014436;28;20228;-48
2023/12/06 01:26:35;;;;;;;1.52;0.15;;;20.10;46.10;20.90;101367.00;;;;4980646;28;20041;-48
2023/12/06 01:29:03;;;;;;;0.57;0.20;;;20.10;46.20;20.90;101369.00;;;;5030315;28;20038;-49
2023/12/06 01:31:30;;;;;;;0.40;0.20;;;20.10;46.00;20.90;101374.00;;;;5013640;28;20044;-49
2023/12/06 01:33:56;;;;;;;0.38;0.15;;;20.10;46.00;20.90;101368.00;;;;5014533;28;20096;-49
2023/12/06 01:36:22;;;;;;;0.30;0.10;;;20.10;46.00;20.90;101372.00;;;;5013555;28;20049;-48
2023/12/06 01:38:48;;;;;;;1.75;0.20;;;20.10;46.10;20.90;101380.00;;;;5004899;28;20108;-51
2023/12/06 01:41:14;;;;;;;0.82;0.10;;;20.10;46.00;20.90;101381.00;;;;5014708;28;20131;-50
2023/12/06 01:43:44;;;;;;;1.30;0.10;;;20.00;46.00;20.90;101387.00;;;;5014264;28;20136;-50
2023/12/06 01:46:13;;;;;;;0.52;0.10;;;20.10;46.00;20.90;101390.00;;;;5015167;28;20049;-49
2023/12/06 01:48:41;;;;;;;0.28;0.10;;;20.00;46.00;20.90;101389.00;;;;5033333;28;20390;-53
2023/12/06 01:51:09;;;;;;;1.75;0.10;;;20.00;46.00;20.90;101394.00;;;;5016522;28;20096;-53
2023/12/06 01:53:36;;;;;;;1.45;0.68;;;20.00;45.90;20.90;101406.00;;;;5001184;28;20562;-69
2023/12/06 01:56:05;;;;;;;0.85;0.40;;;20.00;45.90;20.90;101407.00;;;;5025115;28;20045;-69
2023/12/06 01:58:32;;;;;;;0.10;0.10;;;20.10;46.00;20.90;101414.00;;;;5016171;28;20025;-68
2023/12/06 02:00:59;;;;;;;0.50;0.17;;;20.10;45.90;20.90;101415.00;;;;5016085;28;20458;-69
2023/12/06 02:03:25;;;;;;;0.10;0.10;;;20.00;45.90;20.90;101418.00;;;;5014992;28;20034;-69
2023/12/06 02:05:53;;;;;;;0.10;0.10;;;20.00;45.90;20.90;101416.00;;;;5017194;28;20494;-69
2023/12/06 02:08:19;;;;;;;0.20;0.10;;;20.00;46.00;20.90;101420.00;;;;5016401;28;20490;-69
2023/12/06 02:10:45;;;;;;;1.15;0.25;;;20.00;46.50;20.90;101422.00;;;;5017714;28;20187;-69
2023/12/06 02:13:11;;;;;;;2.05;0.13;;;20.00;45.90;20.80;101420.00;;;;5018265;28;20204;-69
2023/12/06 02:15:38;;;;;;;0.95;0.13;;;20.00;45.90;20.80;101426.00;;;;5024753;28;20025;-69
2023/12/06 02:18:05;;;;;;;0.10;0.10;;;20.00;46.00;20.80;101424.00;;;;5015979;28;20037;-69
2023/12/06 02:20:31;;;;;;;1.33;0.10;;;20.00;46.00;20.80;101426.00;;;;5016277;28;20484;-69
2023/12/06 02:23:03;;;;;;;0.50;0.13;;;20.00;46.00;20.80;101424.00;;;;5016620;28;20051;-70
2023/12/06 02:25:29;;;;;;;0.32;0.10;;;20.00;46.00;20.80;101425.00;;;;5017948;28;20164;-69
2023/12/06 02:27:55;;;;;;;0.25;0.25;;;20.00;46.00;20.80;101434.00;;;;5017031;28;20819;-69
2023/12/06 02:30:21;;;;;;;1.20;0.30;;;20.00;46.00;20.80;101437.00;;;;5019049;28;20170;-70
2023/12/06 02:32:47;;;;;;;0.40;0.20;;;20.00;45.90;20.80;101434.00;;;;4999645;28;20041;-48
2023/12/06 02:35:25;;;;;;;0.60;0.10;;;19.90;45.90;20.80;101440.00;;;;5016982;28;20068;-50
2023/12/06 02:37:56;;;;;;;1.10;0.40;;;20.00;45.90;20.80;101442.00;;;;5024550;28;20128;-50
2023/12/06 02:40:25;;;;;;;0.20;0.20;;;20.00;45.90;20.80;101440.00;;;;5016908;28;20046;-52
2023/12/06 02:42:51;;;;;;;1.23;0.20;;;20.00;45.80;20.80;101453.00;;;;5016458;28;20673;-49
2023/12/06 02:45:17;;;;;;;0.30;0.17;;;20.00;45.90;20.80;101438.00;;;;5015892;28;20047;-48
2023/12/06 02:47:44;;;;;;;1.88;0.30;;;19.90;45.70;20.80;101444.00;;;;5017730;28;20038;-51
2023/12/06 02:50:10;;;;;;;1.48;0.17;;;19.90;45.70;20.80;101441.00;;;;5008373;28;20044;-49
2023/12/06 02:52:37;;;;;;;2.65;0.38;;;19.90;45.70;20.70;101449.00;;;;5016567;28;20030;-50
2023/12/06 02:55:03;;;;;;;0.43;0.10;;;19.90;45.70;20.70;101449.00;;;;5015784;28;20502;-48
2023/12/06 02:57:30;;;;;;;0.20;0.20;;;19.90;45.70;20.80;101455.00;;;;5015470;28;20136;-49
2023/12/06 02:59:56;;;;;;;0.30;0.10;;;19.90;45.60;20.70;101463.00;;;;4999887;28;20138;-49
2023/12/06 03:02:22;;;;;;;0.50;0.50;;;19.90;45.60;20.70;101458.00;;;;5016245;28;20044;-51
2023/12/06 03:04:48;;;;;;;0.70;0.30;;;19.90;45.60;20.70;101460.00;;;;5015442;28;20052;-48
2023/12/06 03:07:14;;;;;;;1.98;0.30;;;19.90;45.60;20.70;101456.00;;;;4999154;28;20080;-47
2023/12/06 03:09:40;;;;;;;1.65;0.35;;;19.90;45.60;20.70;101462.00;;;;5015625;28;20463;-47
2023/12/06 03:12:07;;;;;;;1.92;0.47;;;19.90;45.60;20.70;101459.00;;;;5016012;28;20099;-51
2023/12/06 03:14:33;;;;;;;0.77;0.30;;;19.90;45.80;20.70;101460.00;;;;5017553;28;20088;-50
2023/12/06 03:16:59;;;;;;;0.45;0.45;;;19.90;45.70;20.70;101454.00;;;;4998783;28;20128;-48
2023/12/06 03:19:25;;;;;;;0.88;0.30;;;19.90;45.70;20.70;101454.00;;;;4999644;28;20037;-48
2023/12/06 03:21:51;;;;;;;2.22;0.20;;;19.80;45.70;20.70;101454.00;;;;5016798;28;20855;-47
2023/12/06 03:24:17;;;;;;;2.05;0.60;;;19.90;45.80;20.70;101452.00;;;;5017963;28;20042;-49
2023/12/06 03:26:43;;;;;;;1.30;0.22;;;19.80;45.80;20.70;101446.00;;;;5016303;28;20038;-50
2023/12/06 03:29:09;;;;;;;2.47;0.20;;;19.90;45.80;20.70;101442.00;;;;5015486;28;20053;-50
2023/12/06 03:31:35;;;;;;;0.82;0.10;;;19.80;45.80;20.70;101439.00;;;;5016740;28;20058;-48
2023/12/06 03:34:01;;;;;;;1.73;0.20;;;19.80;45.90;20.70;101437.00;;;;5017245;28;20056;-47
2023/12/06 03:36:27;;;;;;;1.48;0.40;;;19.80;45.90;20.70;101439.00;;;;4999815;28;20038;-53
2023/12/06 03:38:53;;;;;;;2.45;1.05;;;19.80;45.90;20.70;101439.00;;;;5016361;28;20049;-49
2023/12/06 03:41:19;;;;;;;2.40;0.20;;;19.80;45.90;20.70;101445.00;;;;5015500;28;20044;-48
2023/12/06 03:43:45;;;;;;;0.93;0.30;;;19.80;46.00;20.70;101442.00;;;;5015398;28;20038;-48
2023/12/06 03:46:11;;;;;;;1.35;0.10;;;19.80;46.00;20.70;101435.00;;;;5017375;28;20455;-50
2023/12/06 03:48:37;;;;;;;1.75;0.20;;;19.80;46.10;20.70;101431.00;;;;5023227;28;20033;-50
2023/12/06 03:51:04;;;;;;;0.65;0.20;;;19.80;46.00;20.70;101438.00;;;;5015625;28;20046;-50
2023/12/06 03:53:30;;;;;;;3.00;0.35;;;19.80;46.10;20.60;101434.00;;;;5014836;28;20128;-50
2023/12/06 03:55:56;;;;;;;0.80;0.10;;;19.80;46.10;20.70;101435.00;;;;5013841;28;21237;-52
2023/12/06 03:58:22;;;;;;;0.52;0.20;;;19.80;46.10;20.70;101429.00;;;;5016775;28;20038;-51
2023/12/06 04:00:48;;;;;;;0.38;0.20;;;19.80;46.20;20.60;101434.00;;;;5031029;28;20041;-49
2023/12/06 04:03:14;;;;;;;1.15;0.22;;;19.80;46.20;20.60;101435.00;;;;5031153;28;20059;-53
2023/12/06 04:05:44;;;;;;;1.45;0.32;;;19.80;46.20;20.70;101441.00;;;;5015113;28;20029;-48
2023/12/06 04:08:10;;;;;;;1.45;0.50;;;19.80;46.20;20.70;101436.00;;;;5014768;28;20045;-50
2023/12/06 04:10:37;;;;;;;5.32;0.68;;;19.80;46.10;20.70;101442.00;;;;5014303;28;20144;-50
2023/12/06 04:13:04;;;;;;;1.23;0.30;;;19.80;46.00;20.60;101447.00;;;;5015666;28;20566;-48
2023/12/06 04:15:30;;;;;;;0.90;0.20;;;19.80;46.00;20.60;101438.00;;;;5014371;28;20113;-50
2023/12/06 04:17:57;;;;;;;0.82;0.20;;;19.80;46.00;20.60;101437.00;;;;5014915;28;20065;-47
2023/12/06 04:20:23;;;;;;;0.65;0.65;;;19.80;46.00;20.60;101443.00;;;;5014726;28;20041;-50
2023/12/06 04:22:49;;;;;;;0.80;0.20;;;19.80;45.90;20.60;101444.00;;;;5015601;28;20115;-48
2023/12/06 04:25:16;;;;;;;1.35;0.35;;;19.80;45.90;20.60;101445.00;;;;5030028;28;20135;-50
2023/12/06 04:27:42;;;;;;;2.95;0.20;;;19.80;45.90;20.60;101446.00;;;;5005757;28;20203;-48
2023/12/06 04:30:14;;;;;;;0.60;0.20;;;19.80;45.80;20.60;101445.00;;;;5013895;28;20029;-52
2023/12/06 04:32:40;;;;;;;1.77;0.45;;;19.70;45.70;20.60;101446.00;;;;5015076;28;20029;-48
2023/12/06 04:35:09;;;;;;;2.67;0.90;;;19.70;45.90;20.60;101449.00;;;;5015069;28;20475;-52
2023/12/06 04:37:35;;;;;;;0.63;0.30;;;19.80;46.00;20.60;101451.00;;;;5021258;28;20048;-48
2023/12/06 04:40:02;;;;;;;1.35;0.20;;;19.70;45.90;20.60;101456.00;;;;5005306;28;20066;-48
2023/12/06 04:42:27;;;;;;;1.33;0.20;;;19.70;45.90;20.60;101455.00;;;;5006421;28;20124;-47
2023/12/06 04:44:53;;;;;;;0.77;0.30;;;19.70;45.80;20.60;101456.00;;;;5016929;28;20557;-51
2023/12/06 04:47:19;;;;;;;0.93;0.20;;;19.70;45.80;20.60;101449.00;;;;5014335;28;20495;-49
2023/12/06 04:49:45;;;;;;;0.60;0.20;;;19.70;45.70;20.60;101456.00;;;;5014585;28;20229;-47
2023/12/06 04:52:13;;;;;;;2.35;0.20;;;19.70;45.70;20.60;101463.00;;;;4997331;28;20033;-49
2023/12/06 04:54:39;;;;;;;1.70;0.20;;;19.70;45.60;20.60;101459.00;;;;5014067;28;20614;-70
2023/12/06 04:57:05;;;;;;;2.00;1.17;;;19.70;45.50;20.60;101463.00;;;;5006343;28;20501;-70
2023/12/06 04:59:31;;;;;;;2.95;0.30;;;19.70;45.50;20.60;101467.00;;;;5014371;28;20077;-70
2023/12/06 05:01:57;;;;;;;3.35;0.40;;;19.70;45.50;20.60;101467.00;;;;5016897;28;20037;-68
2023/12/06 05:04:23;;;;;;;2.38;0.40;;;19.70;45.40;20.60;101483.00;;;;5013576;28;20060;-70
2023/12/06 05:06:49;;;;;;;3.60;0.65;;;19.70;45.40;20.50;101478.00;;;;4982661;28;20490;-70
2023/12/06 05:09:16;;;;;;;0.20;0.20;;;19.70;45.40;20.50;101480.00;;;;5015087;28;20497;-69
2023/12/06 05:11:42;;;;;;;0.55;0.10;;;19.70;45.40;20.50;101488.00;;;;5029916;28;20035;-69
2023/12/06 05:14:08;;;;;;;1.75;0.20;;;19.70;45.40;20.50;101480.00;;;;4998128;28;20041;-52
2023/12/06 05:16:34;;;;;;;1.40;0.20;;;19.70;45.40;20.50;101478.00;;;;5013689;28;20048;-49
2023/12/06 05:18:59;;;;;;;0.98;0.20;;;19.70;45.40;20.50;101482.00;;;;5014094;28;20053;-51
2023/12/06 05:21:26;;;;;;;4.68;0.75;;;19.70;45.40;20.50;101485.00;;;;5029633;28;20048;-49
2023/12/06 05:23:52;;;;;;;0.80;0.20;;;19.70;45.40;20.50;101486.00;;;;5014842;28;20033;-51
2023/12/06 05:26:18;;;;;;;2.28;0.50;;;19.70;45.40;20.50;101480.00;;;;5013155;28;20060;-50
2023/12/06 05:28:44;;;;;;;1.50;0.30;;;19.70;45.40;20.50;101491.00;;;;5013676;28;20087;-50
2023/12/06 05:31:10;;;;;;;1.25;0.20;;;19.70;45.40;20.50;101503.00;;;;5012492;28;20065;-49
2023/12/06 05:33:36;;;;;;;1.08;0.32;;;19.70;45.40;20.50;101501.00;;;;5014753;28;20112;-50
2023/12/06 05:36:07;;;;;;;1.05;0.20;;;19.70;45.50;20.50;101505.00;;;;5015675;28;20060;-48
2023/12/06 05:38:33;;;;;;;1.48;0.32;;;19.70;45.50;20.50;101518.00;;;;5021329;28;20053;-52
2023/12/06 05:41:00;;;;;;;0.60;0.20;;;19.70;45.50;20.50;101508.00;;;;5014831;28;21772;-51
2023/12/06 05:43:26;;;;;;;3.00;0.65;;;19.70;45.50;20.50;101515.00;;;;5029548;28;20422;-48
2023/12/06 05:45:52;;;;;;;0.68;0.55;;;19.60;45.40;20.50;101516.00;;;;5014395;28;20550;-49
2023/12/06 05:48:18;;;;;;;1.48;0.73;;;19.70;45.50;20.50;101516.00;;;;5014300;28;20042;-50
2023/12/06 05:50:44;;;;;;;2.38;0.22;;;19.70;45.40;20.50;101515.00;;;;5013448;28;20041;-47
2023/12/06 05:53:10;;;;;;;4.22;0.90;;;19.60;45.50;20.50;101514.00;;;;5013025;28;20081;-70
2023/12/06 05:55:36;;;;;;;1.10;0.30;;;19.60;45.40;20.50;101520.00;;;;5012702;28;20051;-70
2023/12/06 05:58:02;;;;;;;2.47;0.32;;;19.60;45.40;20.50;101525.00;;;;5014242;28;20372;-70
2023/12/06 06:00:29;;;;;;;1.20;0.50;;;19.60;45.40;20.50;101530.00;;;;5013662;28;20124;-70
2023/12/06 06:02:58;;;;;;;0.30;0.22;;;19.60;45.30;20.50;101531.00;;;;5013884;28;20173;-69
2023/12/06 06:05:24;;;;;;;2.15;0.52;;;19.60;45.40;20.50;101537.00;;;;5017217;28;20622;-69
2023/12/06 06:07:51;;;;;;;3.53;0.43;;;19.60;45.30;20.50;101539.00;;;;5015517;28;20046;-69
2023/12/06 06:10:17;;;;;;;1.30;0.25;;;19.60;45.40;20.50;101541.00;;;;5013898;28;20127;-69
2023/12/06 06:12:43;;;;;;;0.77;0.57;;;19.60;45.30;20.50;101531.00;;;;5020839;28;20113;-69
2023/12/06 06:15:09;;;;;;;1.15;0.50;;;19.60;45.30;20.50;101535.00;;;;5013736;28;20113;-69
2023/12/06 06:17:35;;;;;;;0.43;0.20;;;19.60;45.40;20.50;101538.00;;;;5014509;28;20033;-69
2023/12/06 06:20:01;;;;;;;3.78;0.88;;;19.60;45.30;20.40;101538.00;;;;4981885;28;20148;-69
2023/12/06 06:22:27;;;;;;;0.63;0.20;;;19.60;45.40;20.40;101539.00;;;;5017335;28;20088;-70
2023/12/06 06:24:53;;;;;;;3.10;0.30;;;19.60;45.40;20.40;101543.00;;;;4998686;28;20633;-69
2023/12/06 06:27:19;;;;;;;2.05;0.70;;;19.60;45.40;20.40;101541.00;;;;5015009;28;20087;-69
2023/12/06 06:29:45;;;;;;;2.90;0.25;;;19.60;45.40;20.40;101536.00;;;;5015723;28;20080;-70
2023/12/06 06:32:11;;;;;;;1.80;0.38;;;19.60;45.40;20.40;101546.00;;;;5014017;28;20033;-69
2023/12/06 06:34:37;;;;;;;1.30;0.40;;;19.60;45.50;20.40;101550.00;;;;5016597;28;20037;-70
2023/12/06 06:37:04;;;;;;;0.82;0.20;;;19.60;45.50;20.40;101548.00;;;;5018606;28;20039;-69
2023/12/06 06:39:30;;;;;;;1.52;0.38;;;19.60;45.40;20.40;101563.00;;;;5017951;28;20030;-69
2023/12/06 06:41:56;;;;;;;3.97;0.60;;;19.60;45.40;20.40;101561.00;;;;5016534;28;20494;-69
2023/12/06 06:44:22;;;;;;;3.50;0.40;;;19.50;45.40;20.40;101568.00;;;;5018494;28;20108;-69
2023/12/06 06:46:48;;;;;;;1.63;0.35;;;19.50;45.40;20.40;101577.00;;;;5016655;28;20042;-69
2023/12/06 06:49:15;;;;;;;2.45;0.35;;;19.50;45.40;20.40;101575.00;;;;5020185;28;20785;-69
2023/12/06 06:51:40;;;;;;;1.70;0.40;;;19.50;45.30;20.40;101586.00;;;;5019604;28;20037;-69
2023/12/06 06:54:07;;;;;;;1.75;0.20;;;19.60;45.30;20.40;101583.00;;;;5017186;28;20643;-47
2023/12/06 06:56:33;;;;;;;1.15;0.68;;;19.50;45.30;20.40;101589.00;;;;5023745;28;20083;-50
2023/12/06 06:59:00;;;;;;;1.70;0.32;;;19.50;45.20;20.40;101583.00;;;;5007778;28;20034;-51
2023/12/06 07:01:26;;;;;;;1.13;0.22;;;19.50;45.20;20.40;101581.00;;;;5018489;28;20029;-50
2023/12/06 07:03:53;;;;;;;1.05;0.30;;;19.60;45.30;20.40;101591.00;;;;5015004;28;20475;-53
2023/12/06 07:06:22;;;;;;;1.33;0.45;;;19.50;45.30;20.40;101591.00;;;;5017393;28;20045;-50
2023/12/06 07:08:49;;;;;;;1.55;0.20;;;19.50;45.30;20.40;101589.00;;;;5007029;28;20033;-47
2023/12/06 07:11:16;;;;;;;3.58;0.30;;;19.50;45.40;20.40;101591.00;;;;5031928;28;20219;-50
2023/12/06 07:13:42;;;;;;;1.23;0.52;;;19.50;45.60;20.40;101596.00;;;;5016838;28;20045;-52
2023/12/06 07:16:10;;;;;;;4.75;0.75;;;19.60;45.70;20.40;101600.00;;;;5016934;28;20030;-47
2023/12/06 07:18:36;;;;;;;9.73;0.45;;;19.60;45.80;20.40;101598.00;;;;5015101;28;20048;-47
2023/12/06 07:21:03;;;;;;;5.43;1.20;;;19.60;46.20;20.40;101612.00;;;;5017517;28;20064;-49
2023/12/06 07:23:29;;;;;;;17.90;1.27;;;19.60;46.40;20.40;101619.00;;;;5016959;28;20497;-48
2023/12/06 07:25:55;;;;;;;9.60;1.38;;;19.60;47.30;20.40;101612.00;;;;5015867;28;20046;-46
2023/12/06 07:28:21;;;;;;;3.42;0.68;;;19.60;46.80;20.50;101613.00;;;;5015951;28;20034;-46
2023/12/06 07:30:47;;;;;;;9.30;1.27;;;19.60;46.80;20.50;101614.00;;;;5014898;28;20030;-48
2023/12/06 07:33:13;;;;;;;4.70;1.13;;;19.60;46.90;20.50;101617.00;;;;5016140;28;20117;-46
2023/12/06 07:35:40;;;;;;;9.68;0.55;;;19.60;46.80;20.40;101630.00;;;;5015860;28;20738;-48
2023/12/06 07:38:09;;;;;;;6.90;1.35;;;19.60;46.80;20.40;101634.00;;;;5015558;28;20615;-47
2023/12/06 07:40:35;;;;;;;3.03;0.38;;;19.60;46.70;20.40;101636.00;;;;5016803;28;20049;-46
2023/12/06 07:43:02;;;;;;;4.20;1.10;;;19.60;46.70;20.40;101635.00;;;;5016674;28;20099;-47
2023/12/06 07:45:28;;;;;;;5.88;2.67;;;19.60;46.60;20.40;101640.00;;;;5015705;28;20095;-47
2023/12/06 07:47:54;;;;;;;2.15;1.20;;;19.60;46.50;20.40;101635.00;;;;5016406;28;20041;-46
2023/12/06 07:50:20;;;;;;;9.77;0.63;;;19.60;46.40;20.40;101632.00;;;;5015451;28;20036;-47
2023/12/06 07:52:47;;;;;;;3.40;1.40;;;19.60;46.40;20.40;101631.00;;;;5015801;28;20591;-46
2023/12/06 07:55:14;;;;;;;3.10;0.88;;;19.60;46.40;20.40;101628.00;;;;5015765;28;20739;-47
2023/12/06 07:57:40;;;;;;;3.30;0.40;;;19.60;46.40;20.40;101635.00;;;;5013296;28;20387;-48
2023/12/06 08:00:11;;;;;;;1.60;0.60;;;19.60;46.40;20.40;101639.00;;;;5015212;28;20034;-46
2023/12/06 08:02:42;;;;;;;5.22;0.82;;;19.60;46.30;20.40;101650.00;;;;5015185;28;20041;-48
2023/12/06 08:05:10;;;;;;;1.85;0.47;;;19.60;46.20;20.40;101645.00;;;;5014933;28;20127;-47
2023/12/06 08:07:37;;;;;;;2.08;0.40;;;19.50;46.10;20.40;101650.00;;;;5016275;28;20104;-47
2023/12/06 08:10:09;;;;;;;0.85;0.30;;;19.60;46.10;20.40;101651.00;;;;5016546;28;20041;-46
2023/12/06 08:12:36;;;;;;;5.30;0.40;;;19.60;46.10;20.30;101653.00;;;;5015395;28;20060;-49
2023/12/06 08:15:07;;;;;;;2.08;0.30;;;19.50;46.00;20.30;101654.00;;;;4999039;28;20045;-49
2023/12/06 08:17:34;;;;;;;2.13;1.05;;;19.50;46.00;20.30;101653.00;;;;5015905;28;20071;-49
2023/12/06 08:20:01;;;;;;;1.50;0.85;;;19.50;45.90;20.30;101657.00;;;;4999082;28;20037;-46
2023/12/06 08:22:27;;;;;;;2.30;0.25;;;19.50;45.90;20.30;101670.00;;;;5017286;28;20041;-49
2023/12/06 08:24:57;;;;;;;3.75;0.30;;;19.50;45.90;20.30;101665.00;;;;4997980;28;20437;-47
2023/12/06 08:27:29;;;;;;;2.85;0.63;;;19.50;45.90;20.30;101665.00;;;;5029925;28;20049;-44
2023/12/06 08:29:58;;;;;;;3.90;0.55;;;19.50;45.90;20.30;101668.00;;;;5021736;28;20045;-47
2023/12/06 08:32:25;;;;;;;0.90;0.10;;;19.50;45.90;20.30;101671.00;;;;5015253;28;20026;-51
2023/12/06 08:34:51;;;;;;;2.70;0.45;;;19.50;46.00;20.30;101671.00;;;;5008809;28;20080;-50
2023/12/06 08:37:18;;;;;;;2.72;0.50;;;19.50;46.10;20.30;101669.00;;;;5016794;28;20048;-54
2023/12/06 08:39:44;;;;;;;4.25;0.38;;;19.50;46.20;20.30;101675.00;;;;5017019;28;20528;-51
2023/12/06 08:42:17;;;;;;;8.65;0.90;;;19.50;46.30;20.40;101673.00;;;;5016970;28;20143;-53
2023/12/06 08:44:44;;;;;;;3.63;0.77;;;19.60;46.40;20.40;101665.00;;;;5018232;28;20082;-50
2023/12/06 08:47:10;;;;;;;3.80;0.47;;;19.60;46.40;20.50;101668.00;;;;5016593;28;20191;-53
2023/12/06 08:49:37;;;;;;;3.53;0.85;;;19.70;46.60;20.50;101683.00;;;;5016133;28;20490;-54
2023/12/06 08:52:05;;;;;;;4.13;0.63;;;19.70;46.60;20.60;101687.00;;;;5017492;28;20065;-53
2023/12/06 08:54:35;;;;;;;5.78;1.63;;;19.70;46.60;20.60;101682.00;;;;5014931;28;20049;-54
2023/12/06 08:57:01;;;;;;;4.20;1.25;;;19.80;46.60;20.70;101683.00;;;;5020345;28;20033;-59
2023/12/06 08:59:28;;;;;;;3.13;0.80;;;19.80;46.60;20.70;101680.00;;;;5013722;28;20363;-60
2023/12/06 09:01:55;;;;;;;3.67;1.30;;;19.80;46.50;20.80;101681.00;;;;5014756;28;20088;-56
2023/12/06 09:04:22;;;;;;;4.38;1.10;;;19.90;46.60;20.80;101680.00;;;;5014588;28;20047;-67
2023/12/06 09:06:48;;;;;;;9.02;1.48;;;19.90;46.60;20.90;101677.00;;;;5004891;28;20029;-66
2023/12/06 09:09:17;;;;;;;1.48;0.30;;;20.00;46.70;20.90;101678.00;;;;5030277;28;20416;-52
2023/12/06 09:11:46;;;;;;;5.03;0.98;;;20.00;46.70;21.00;101675.00;;;;5014875;28;20030;-53
2023/12/06 09:14:12;;;;;;;6.72;1.33;;;20.00;46.70;21.00;101670.00;;;;5014155;28;20034;-54
2023/12/06 09:16:40;;;;;;;8.23;0.57;;;20.10;46.60;21.00;101674.00;;;;5013688;28;20446;-60
2023/12/06 09:19:06;;;;;;;4.22;0.60;;;20.10;46.50;21.00;101670.00;;;;5014791;28;20029;-56
2023/12/06 09:21:44;;;;;;;3.80;0.80;;;20.10;46.50;21.10;101670.00;;;;5014608;28;20045;-51
2023/12/06 09:24:10;;;;;;;6.18;0.60;;;20.20;46.60;21.10;101673.00;;;;5005845;28;20067;-54
2023/12/06 09:26:38;;;;;;;5.38;0.65;;;20.20;46.40;21.20;101682.00;;;;5014104;28;20048;-55
2023/12/06 09:29:06;;;;;;;2.45;1.33;;;20.20;46.40;21.20;101676.00;;;;4996360;28;20437;-58
2023/12/06 09:31:37;;;;;;;6.90;0.60;;;20.30;46.40;21.30;101678.00;;;;4997240;28;20791;-50
2023/12/06 09:34:04;;;;;;;4.57;1.58;;;20.30;46.30;21.30;101686.00;;;;4996340;28;20065;-56
2023/12/06 09:36:30;;;;;;;2.97;0.63;;;20.30;46.20;21.30;101673.00;;;;5013816;28;20088;-52
2023/12/06 09:38:58;;;;;;;1.08;0.25;;;20.40;46.20;21.40;101670.00;;;;5014787;28;20034;-49
2023/12/06 09:41:29;;;;;;;2.05;1.13;;;20.40;46.10;21.40;101675.00;;;;5014036;28;20095;-51
2023/12/06 09:43:56;;;;;;;3.30;0.40;;;20.50;46.10;21.50;101684.00;;;;5014151;28;20072;-52
2023/12/06 09:46:22;;;;;;;5.97;0.50;;;20.50;45.90;21.50;101687.00;;;;5029703;28;20047;-52
2023/12/06 09:48:48;;;;;;;6.35;0.50;;;20.50;45.90;21.50;101686.00;;;;5020760;28;20834;-55
2023/12/06 09:51:16;;;;;;;6.10;1.10;;;20.60;46.00;21.50;101686.00;;;;5014351;28;20042;-65
2023/12/06 09:53:42;;;;;;;3.30;0.73;;;20.50;45.90;21.60;101688.00;;;;5013987;28;20052;-54
2023/12/06 09:56:09;;;;;;;0.68;0.40;;;20.50;45.80;21.60;101695.00;;;;5013937;28;20048;-52
2023/12/06 09:58:36;;;;;;;2.25;0.40;;;20.60;45.90;21.60;101702.00;;;;5013867;28;20049;-52
2023/12/06 10:01:03;;;;;;;4.68;0.43;;;20.60;45.90;21.60;101702.00;;;;5013751;28;20045;-45
2023/12/06 10:03:29;;;;;;;1.55;0.30;;;20.60;45.80;21.60;101699.00;;;;5014200;28;20561;-47
2023/12/06 10:05:58;;;;;;;6.13;0.98;;;20.60;45.80;21.60;101709.00;;;;5014675;28;22327;-51
2023/12/06 10:08:24;;;;;;;1.65;0.38;;;20.70;45.80;21.60;101705.00;;;;5016555;28;20364;-49
2023/12/06 10:11:08;;;;;;;3.22;0.93;;;20.70;45.80;21.60;101700.00;;;;5018049;28;20073;-52
2023/12/06 10:13:40;;;;;;;3.95;0.55;;;20.60;45.70;21.60;101702.00;;;;5018015;28;20422;-59
2023/12/06 10:16:35;;;;;;;3.17;1.33;;;20.70;45.70;21.70;101709.00;;;;5019146;28;20572;-67
2023/12/06 10:19:01;;;;;;;3.50;0.40;;;20.60;45.60;21.70;101709.00;;;;5017673;28;20142;-51
2023/12/06 10:21:30;;;;;;;2.15;0.50;;;20.70;45.70;21.70;101714.00;;;;5016808;28;20490;-50
2023/12/06 10:24:00;;;;;;;1.08;0.40;;;20.70;46.30;21.70;101710.00;;;;5016048;28;20037;-47
2023/12/06 10:26:30;;;;;;;2.38;0.30;;;20.70;45.60;21.80;101701.00;;;;5017824;28;20048;-48
2023/12/06 10:28:56;;;;;;;1.95;0.55;;;20.80;45.50;21.80;101707.00;;;;5007810;28;20038;-52
2023/12/06 10:31:22;;;;;;;2.60;0.70;;;20.80;45.40;21.80;101705.00;;;;5016443;28;20099;-49
2023/12/06 10:33:56;;;;;;;3.63;0.20;;;20.80;45.30;21.80;101705.00;;;;5018458;28;20610;-51
2023/12/06 10:36:26;;;;;;;1.27;0.40;;;20.80;45.10;21.90;101705.00;;;;5018316;28;20037;-48
2023/12/06 10:38:54;;;;;;;2.67;0.50;;;20.90;45.10;21.90;101707.00;;;;5017690;28;20073;-52
2023/12/06 10:41:21;;;;;;;2.17;0.30;;;20.90;45.10;21.90;101698.00;;;;5001974;28;20087;-50
2023/12/06 10:43:49;;;;;;;0.40;0.40;;;20.90;44.90;21.90;101694.00;;;;5016230;28;20045;-53
2023/12/06 10:46:17;;;;;;;3.30;0.40;;;20.90;44.80;21.90;101699.00;;;;5016042;28;20417;-48